Newport, North Carolina
Current Conditions -  °F | °C
As of 1:54 AM on Monday 24 Nov 2014 (Local Time) from KNKT Reporting Station
Light Rain Light Rain  
Wind Chill: 70°   Ceiling: 800
Heat Index: 70°   Visibility: 10mi
Dew Point: 67°   Wind: 22mph
Humidity: 90%   Direction: 150°SSE
Pressure: 29.84"   Gusts: 35mph
Location:  34.79°N, 76.86°W
Report Text: KNKT 240654Z 15019G30KT 10SM -RA OVC008 21/19 A2984 RMK AO2 PK WND 17036/0621 TSB04E37 CIG 006V012 SLP103 P0024 T02110194 $
Loading
Personal Weather Stations






























Interactive Weather Map New forecast layout! Learn more

10-Day Weather Forecast

Advertisements
Track Severe Weather on mobile